createdAt,value
2018-09-22T00:01:33.389Z,91.20
2018-09-22T00:04:02.643Z,90.50
2018-09-22T00:06:32.041Z,87.40
2018-09-22T00:09:01.276Z,91.40
2018-09-22T00:11:30.510Z,90.60
2018-09-22T00:13:59.757Z,91.60
2018-09-22T00:16:29.100Z,90.20
2018-09-22T00:18:58.401Z,90.60
2018-09-22T00:21:27.659Z,91.00
2018-09-22T00:23:56.928Z,91.80
2018-09-22T00:26:26.160Z,92.10
2018-09-22T00:28:55.400Z,91.70
2018-09-22T00:31:24.724Z,91.60
2018-09-22T00:33:53.961Z,92.30
2018-09-22T00:36:23.303Z,92.20
2018-09-22T00:38:53.156Z,92.10
2018-09-22T00:41:22.374Z,92.30
2018-09-22T00:43:51.688Z,93.00
2018-09-22T00:46:21.347Z,93.20
2018-09-22T00:48:50.582Z,93.30
2018-09-22T00:51:19.803Z,94.00
2018-09-22T00:53:49.208Z,93.80
2018-09-22T00:56:18.462Z,94.50
2018-09-22T00:58:47.697Z,94.60
2018-09-22T01:01:17.720Z,94.60
2018-09-22T01:03:46.983Z,94.70
2018-09-22T01:06:16.197Z,94.30
2018-09-22T01:08:45.451Z,94.90
2018-09-22T01:11:14.689Z,94.90
2018-09-22T01:13:44.085Z,95.10
2018-09-22T01:16:13.348Z,95.20
2018-09-22T01:18:42.620Z,95.70
2018-09-22T01:21:11.852Z,95.90
2018-09-22T01:23:41.487Z,95.80
2018-09-22T01:26:10.717Z,96.00
2018-09-22T01:28:39.957Z,95.60
2018-09-22T01:31:09.358Z,95.80
2018-09-22T01:33:38.620Z,97.20
2018-09-22T01:36:07.859Z,97.10
2018-09-22T01:38:37.168Z,97.20
2018-09-22T01:41:06.464Z,97.70
2018-09-22T01:43:35.697Z,97.10
2018-09-22T01:46:05.171Z,97.50
2018-09-22T01:48:34.544Z,98.10
2018-09-22T01:51:03.764Z,97.60
2018-09-22T01:53:33.012Z,97.70
2018-09-22T01:56:02.248Z,97.80
2018-09-22T01:58:31.469Z,97.90
2018-09-22T02:01:00.717Z,98.00
2018-09-22T02:03:29.948Z,98.20
2018-09-22T02:05:59.195Z,98.70
2018-09-22T02:08:28.725Z,98.40
2018-09-22T02:10:58.013Z,98.80
2018-09-22T02:13:27.235Z,98.70
2018-09-22T02:15:57.055Z,99.00
2018-09-22T02:18:26.284Z,99.00
2018-09-22T02:20:55.769Z,99.50
2018-09-22T02:23:25.460Z,99.40
2018-09-22T02:25:54.820Z,99.40
2018-09-22T02:28:24.077Z,99.70
2018-09-22T02:30:53.404Z,99.40
2018-09-22T02:33:22.676Z,99.90
2018-09-22T02:35:51.940Z,99.90
2018-09-22T02:38:21.208Z,99.90
2018-09-22T02:40:50.440Z,99.90
2018-09-22T02:43:19.665Z,99.90
2018-09-22T02:45:48.927Z,99.90
2018-09-22T02:48:18.277Z,99.90
2018-09-22T02:50:47.500Z,99.90
2018-09-22T02:53:16.854Z,99.90
2018-09-22T02:55:46.076Z,99.90
2018-09-22T02:58:15.292Z,99.90
2018-09-22T03:00:44.548Z,99.90
2018-09-22T03:03:13.772Z,99.90
2018-09-22T03:05:43.015Z,99.90
2018-09-22T03:08:12.582Z,99.90
2018-09-22T03:10:41.839Z,99.90
2018-09-22T03:13:11.070Z,99.90
2018-09-22T03:15:40.920Z,99.90
2018-09-22T03:18:10.149Z,99.90
2018-09-22T03:20:39.383Z,99.90
2018-09-22T03:23:08.816Z,99.90
2018-09-22T03:25:38.045Z,99.90
2018-09-22T03:28:07.330Z,99.90
2018-09-22T03:30:36.582Z,99.90
2018-09-22T03:33:06.162Z,99.90
2018-09-22T03:35:35.424Z,99.90
2018-09-22T03:38:05.253Z,99.90
2018-09-22T03:40:34.511Z,99.90
2018-09-22T03:43:03.752Z,99.90
2018-09-22T03:45:32.983Z,99.90
2018-09-22T03:48:02.211Z,99.90
2018-09-22T03:50:31.720Z,99.90
2018-09-22T03:53:00.955Z,99.90
2018-09-22T03:55:30.177Z,99.90
2018-09-22T03:57:59.415Z,99.90
2018-09-22T04:00:28.968Z,99.90
2018-09-22T04:02:58.176Z,99.90
2018-09-22T04:05:27.408Z,99.90
2018-09-22T04:07:56.689Z,99.90
2018-09-22T04:10:25.929Z,99.90
2018-09-22T04:12:55.141Z,99.90
2018-09-22T04:15:24.439Z,99.90
2018-09-22T04:17:53.664Z,99.90
2018-09-22T04:20:22.910Z,99.90
2018-09-22T04:22:52.205Z,99.90
2018-09-22T04:25:21.420Z,99.90
2018-09-22T04:27:50.825Z,99.90
2018-09-22T04:30:20.064Z,99.90
2018-09-22T04:32:49.284Z,99.90
2018-09-22T04:35:18.500Z,99.90
2018-09-22T04:37:47.736Z,99.90
2018-09-22T04:40:16.956Z,99.90
2018-09-22T04:42:46.169Z,99.90
2018-09-22T04:45:15.493Z,99.90
2018-09-22T04:47:44.708Z,99.90
2018-09-22T04:50:13.960Z,99.90
2018-09-22T04:52:43.476Z,99.90
2018-09-22T04:55:12.733Z,99.90
2018-09-22T04:57:41.973Z,99.90
2018-09-22T05:00:11.300Z,99.90
2018-09-22T05:02:40.516Z,99.90
2018-09-22T05:05:09.728Z,99.90
2018-09-22T05:07:39.323Z,99.90
2018-09-22T05:10:08.548Z,99.90
2018-09-22T05:12:37.765Z,99.90
2018-09-22T05:15:07.075Z,99.90
2018-09-22T05:17:36.277Z,99.90
2018-09-22T05:20:05.554Z,99.90
2018-09-22T05:22:34.801Z,99.90
2018-09-22T05:25:04.125Z,99.90
2018-09-22T05:27:33.359Z,99.90
2018-09-22T05:30:02.705Z,99.90
2018-09-22T05:32:31.920Z,99.90
2018-09-22T05:35:01.144Z,99.90
2018-09-22T05:37:30.389Z,99.90
2018-09-22T05:39:59.616Z,99.90
2018-09-22T05:42:28.864Z,99.90
2018-09-22T05:44:58.117Z,99.90
2018-09-22T05:47:27.349Z,99.90
2018-09-22T05:49:56.573Z,99.90
2018-09-22T05:52:26.282Z,99.90
2018-09-22T05:54:55.658Z,99.90
2018-09-22T05:57:24.900Z,99.90
2018-09-22T05:59:54.432Z,99.90
2018-09-22T06:02:23.856Z,99.90
2018-09-22T06:04:53.097Z,99.90
2018-09-22T06:07:24.619Z,99.80
2018-09-22T06:09:53.852Z,99.70
2018-09-22T06:12:23.088Z,99.90
2018-09-22T06:14:52.745Z,99.80
2018-09-22T06:17:21.972Z,99.50
2018-09-22T06:19:51.196Z,98.80
2018-09-22T06:22:20.440Z,98.80
2018-09-22T06:24:49.730Z,98.50
2018-09-22T06:27:18.960Z,98.00
2018-09-22T06:29:48.199Z,98.10
2018-09-22T06:32:19.809Z,98.30
2018-09-22T06:34:49.109Z,98.90
2018-09-22T06:37:18.345Z,99.80
2018-09-22T06:39:47.620Z,99.30
2018-09-22T06:42:16.908Z,99.30
2018-09-22T06:44:46.144Z,98.20
2018-09-22T06:47:15.356Z,98.10
2018-09-22T06:49:44.617Z,98.40
2018-09-22T06:52:13.833Z,97.70
2018-09-22T06:54:48.691Z,97.90
2018-09-22T06:57:18.948Z,97.20
2018-09-22T06:59:48.203Z,97.10
2018-09-22T07:02:17.468Z,97.80
2018-09-22T07:04:46.688Z,97.00
2018-09-22T07:07:15.896Z,97.00
2018-09-22T07:09:45.139Z,96.50
2018-09-22T07:12:14.376Z,96.10
2018-09-22T07:14:43.645Z,96.80
2018-09-22T07:17:13.367Z,95.70
2018-09-22T07:19:42.640Z,96.00
2018-09-22T07:22:18.321Z,96.50
2018-09-22T07:24:47.721Z,96.10
2018-09-22T07:27:16.972Z,96.20
2018-09-22T07:29:46.228Z,96.10
2018-09-22T07:32:15.460Z,96.90
2018-09-22T07:34:44.691Z,96.60
2018-09-22T07:37:14.173Z,96.10
2018-09-22T07:39:43.549Z,95.60
2018-09-22T07:42:12.788Z,95.70
2018-09-22T07:44:42.617Z,94.70
2018-09-22T07:47:13.827Z,97.30
2018-09-22T07:49:43.328Z,96.70
2018-09-22T07:52:16.736Z,94.60
2018-09-22T07:54:46.289Z,96.60
2018-09-22T07:57:15.542Z,94.80
2018-09-22T07:59:45.143Z,96.20
2018-09-22T08:02:14.593Z,94.90
2018-09-22T08:04:43.971Z,94.60
2018-09-22T08:07:13.224Z,93.90
2018-09-22T08:09:42.790Z,93.10
2018-09-22T08:12:12.033Z,92.50
2018-09-22T08:14:41.519Z,91.80
2018-09-22T08:17:10.860Z,93.80
2018-09-22T08:19:40.340Z,92.20
2018-09-22T08:22:09.639Z,91.00
2018-09-22T08:24:40.369Z,90.50
2018-09-22T08:27:11.876Z,90.00
2018-09-22T08:29:41.480Z,90.00
2018-09-22T08:32:10.745Z,91.00
2018-09-22T08:34:40.000Z,90.50
2018-09-22T08:37:09.813Z,90.70
2018-09-22T08:39:38.908Z,88.40
2018-09-22T08:42:08.440Z,89.30
2018-09-22T08:44:37.909Z,89.60
2018-09-22T08:47:07.140Z,89.90
2018-09-22T08:49:36.551Z,88.10
2018-09-22T08:52:05.941Z,88.40
2018-09-22T08:54:35.172Z,87.40
2018-09-22T08:57:04.436Z,88.30
2018-09-22T08:59:34.429Z,88.20
2018-09-22T09:02:03.936Z,89.90
2018-09-22T09:04:33.311Z,87.70
2018-09-22T09:07:02.584Z,86.70
2018-09-22T09:09:33.060Z,87.10
2018-09-22T09:12:02.359Z,85.10
2018-09-22T09:14:33.128Z,85.50
2018-09-22T09:17:02.565Z,85.50
2018-09-22T09:19:33.069Z,86.00
2018-09-22T09:22:02.388Z,90.30
2018-09-22T09:24:32.064Z,89.80
2018-09-22T09:27:01.361Z,86.60
2018-09-22T09:29:30.860Z,83.50
2018-09-22T09:32:00.136Z,83.50
2018-09-22T09:34:29.419Z,84.50
2018-09-22T09:37:00.926Z,82.60
2018-09-22T09:39:30.149Z,82.10
2018-09-22T09:41:59.439Z,81.70
2018-09-22T09:44:31.029Z,82.80
2018-09-22T09:47:00.244Z,81.70
2018-09-22T09:49:29.480Z,78.40
2018-09-22T09:51:58.732Z,79.60
2018-09-22T09:54:28.000Z,80.30
2018-09-22T09:56:57.220Z,79.00
2018-09-22T09:59:26.488Z,82.20
2018-09-22T10:01:55.704Z,80.00
2018-09-22T10:04:25.167Z,78.70
2018-09-22T10:06:55.280Z,73.20
2018-09-22T10:09:25.032Z,76.70
2018-09-22T10:11:54.299Z,80.10
2018-09-22T10:14:23.810Z,70.80
2018-09-22T10:16:53.028Z,87.60
2018-09-22T10:19:22.253Z,64.00
2018-09-22T10:21:51.515Z,60.90
2018-09-22T10:24:20.789Z,62.00
2018-09-22T10:26:50.311Z,78.60
2018-09-22T10:29:19.672Z,60.60
2018-09-22T10:31:49.716Z,66.70
2018-09-22T10:34:18.936Z,61.60
2018-09-22T10:36:48.664Z,56.00
2018-09-22T10:39:18.077Z,57.10
2018-09-22T10:41:47.319Z,56.30
2018-09-22T10:44:16.654Z,56.40
2018-09-22T10:46:46.100Z,56.30
2018-09-22T10:49:15.336Z,57.60
2018-09-22T10:51:44.737Z,56.70
2018-09-22T10:54:14.124Z,57.40
2018-09-22T10:56:43.540Z,57.90
2018-09-22T10:59:12.830Z,59.20
2018-09-22T11:01:42.352Z,63.10
2018-09-22T11:04:11.588Z,61.20
2018-09-22T11:06:40.832Z,62.80
2018-09-22T11:09:10.061Z,59.40
2018-09-22T11:11:39.286Z,59.00
2018-09-22T11:14:08.596Z,59.00
2018-09-22T11:16:37.856Z,62.80
2018-09-22T11:19:07.232Z,63.50
2018-09-22T11:21:36.764Z,63.60
2018-09-22T11:24:06.064Z,63.40
2018-09-22T11:26:35.297Z,63.30
2018-09-22T11:29:04.764Z,59.00
2018-09-22T11:31:34.012Z,61.00
2018-09-22T11:34:03.348Z,65.20
2018-09-22T11:36:35.684Z,64.10
2018-09-22T11:39:07.304Z,60.50
2018-09-22T11:41:36.640Z,62.50
2018-09-22T11:44:05.996Z,59.10
2018-09-22T11:46:35.234Z,56.20
2018-09-22T11:49:06.773Z,57.60
2018-09-22T11:51:35.995Z,56.10
2018-09-22T11:54:05.258Z,55.10
2018-09-22T11:56:35.844Z,55.20
2018-09-22T11:59:05.264Z,54.70
2018-09-22T12:01:35.181Z,55.60
2018-09-22T12:04:05.093Z,54.70
2018-09-22T12:06:34.408Z,55.40
2018-09-22T12:09:04.645Z,52.90
2018-09-22T12:11:34.346Z,53.70
2018-09-22T12:14:03.823Z,51.10
2018-09-22T12:16:33.404Z,50.80
2018-09-22T12:19:02.908Z,52.40
2018-09-22T12:21:32.329Z,52.40
2018-09-22T12:24:01.944Z,51.60
2018-09-22T12:26:31.184Z,50.70
2018-09-22T12:29:00.713Z,53.20
2018-09-22T12:31:30.081Z,51.80
2018-09-22T12:33:59.404Z,50.00
2018-09-22T12:36:28.700Z,51.90
2018-09-22T12:38:58.011Z,56.30
2018-09-22T12:41:27.303Z,52.40
2018-09-22T12:43:57.812Z,48.50
2018-09-22T12:46:27.068Z,48.40
2018-09-22T12:48:56.371Z,48.70
2018-09-22T12:51:25.620Z,51.10
2018-09-22T12:53:54.849Z,49.50
2018-09-22T12:56:24.100Z,47.40
2018-09-22T12:58:53.635Z,47.30
2018-09-22T13:01:22.856Z,48.80
2018-09-22T13:03:53.104Z,47.90
2018-09-22T13:06:22.248Z,48.10
2018-09-22T13:08:51.490Z,49.10
2018-09-22T13:11:21.185Z,49.00
2018-09-22T13:13:50.452Z,47.10
2018-09-22T13:16:19.703Z,48.40
2018-09-22T13:18:49.156Z,46.70
2018-09-22T13:21:18.491Z,48.90
2018-09-22T13:24:52.909Z,46.40
2018-09-22T13:27:22.185Z,44.90
2018-09-22T13:29:51.536Z,45.00
2018-09-22T13:32:20.824Z,43.90
2018-09-22T13:34:51.132Z,41.50
2018-09-22T13:37:23.094Z,40.70
2018-09-22T13:39:52.470Z,40.90
2018-09-22T13:42:21.763Z,40.40
2018-09-22T13:44:51.150Z,41.20
2018-09-22T13:47:20.689Z,40.50
2018-09-22T13:49:50.038Z,39.80
2018-09-22T13:52:19.323Z,40.90
2018-09-22T13:54:48.588Z,41.20
2018-09-22T13:57:18.180Z,41.50
2018-09-22T13:59:47.727Z,43.50
2018-09-22T14:02:17.104Z,43.50
2018-09-22T14:04:47.312Z,41.90
2018-09-22T14:07:17.164Z,42.70
2018-09-22T14:09:46.549Z,43.50
2018-09-22T14:12:15.840Z,42.10
2018-09-22T14:14:45.211Z,43.00
2018-09-22T14:17:14.449Z,44.10
2018-09-22T14:19:43.765Z,43.10
2018-09-22T14:22:13.301Z,43.30
2018-09-22T14:24:42.647Z,41.90
2018-09-22T14:27:12.062Z,42.00
2018-09-22T14:29:41.633Z,38.70
2018-09-22T14:32:10.804Z,41.20
2018-09-22T14:34:40.199Z,40.20
2018-09-22T14:37:09.648Z,39.40
2018-09-22T14:39:39.277Z,39.60
2018-09-22T14:42:09.117Z,39.70
2018-09-22T14:44:38.404Z,40.40
2018-09-22T14:47:07.720Z,41.70
2018-09-22T14:49:37.248Z,41.30
2018-09-22T14:52:06.921Z,40.50
2018-09-22T14:54:36.854Z,40.50
2018-09-22T14:57:07.260Z,40.00
2018-09-22T14:59:36.902Z,39.70
2018-09-22T15:02:06.140Z,40.20
2018-09-22T15:04:37.177Z,40.20
2018-09-22T15:07:06.725Z,40.90
2018-09-22T15:09:35.980Z,41.30
2018-09-22T15:12:06.033Z,41.70
2018-09-22T15:14:35.934Z,41.30
2018-09-22T15:17:05.418Z,41.60
2018-09-22T15:19:34.650Z,41.80
2018-09-22T15:22:05.524Z,42.30
2018-09-22T15:24:39.125Z,41.90
2018-09-22T15:27:08.509Z,41.70
2018-09-22T15:29:44.776Z,41.90
2018-09-22T15:32:14.288Z,42.30
2018-09-22T15:34:43.677Z,42.60
2018-09-22T15:37:14.445Z,42.40
2018-09-22T15:39:44.767Z,41.40
2018-09-22T15:42:14.321Z,42.50
2018-09-22T15:44:43.661Z,42.00
2018-09-22T15:47:14.227Z,42.10
2018-09-22T15:49:43.813Z,42.30
2018-09-22T15:52:13.433Z,42.30
2018-09-22T15:54:43.122Z,42.60
2018-09-22T15:57:12.631Z,42.80
2018-09-22T15:59:43.128Z,42.80
2018-09-22T16:02:13.756Z,43.20
2018-09-22T16:04:44.434Z,43.20
2018-09-22T16:07:13.868Z,43.00
2018-09-22T16:09:43.197Z,43.30
2018-09-22T16:12:16.624Z,43.90
2018-09-22T16:14:49.510Z,44.20
2018-09-22T16:17:23.944Z,43.50
2018-09-22T16:19:53.176Z,44.20
2018-09-22T16:22:24.683Z,43.90
2018-09-22T16:24:53.989Z,44.70
2018-09-22T16:27:24.646Z,45.00
2018-09-22T16:29:54.124Z,46.30
2018-09-22T16:32:23.612Z,45.10
2018-09-22T16:34:53.000Z,45.00
2018-09-22T16:37:23.544Z,45.00
2018-09-22T16:39:54.229Z,45.30
2018-09-22T16:42:24.144Z,44.70
2018-09-22T16:44:54.486Z,45.20
2018-09-22T16:47:24.332Z,45.60
2018-09-22T16:49:53.924Z,45.30
2018-09-22T16:52:23.320Z,45.20
2018-09-22T16:54:52.660Z,45.30
2018-09-22T16:57:24.241Z,45.30
2018-09-22T16:59:53.721Z,46.00
2018-09-22T17:02:23.030Z,46.00
2018-09-22T17:04:52.284Z,46.10
2018-09-22T17:07:21.711Z,46.00
2018-09-22T17:09:51.214Z,45.60
2018-09-22T17:12:20.488Z,45.70
2018-09-22T17:14:49.873Z,46.20
2018-09-22T17:17:19.748Z,46.40
2018-09-22T17:19:49.013Z,46.50
2018-09-22T17:22:19.759Z,46.30
2018-09-22T17:24:49.192Z,46.40
2018-09-22T17:27:18.500Z,46.70
2018-09-22T17:29:49.225Z,46.50
2018-09-22T17:32:20.748Z,46.50
2018-09-22T17:34:51.292Z,46.80
2018-09-22T17:37:21.895Z,46.90
2018-09-22T17:39:51.423Z,46.90
2018-09-22T17:42:20.781Z,47.00
2018-09-22T17:44:51.428Z,47.40
2018-09-22T17:47:21.160Z,47.40
2018-09-22T17:49:50.465Z,47.20
2018-09-22T17:52:19.748Z,47.30
2018-09-22T17:54:49.085Z,47.70
2018-09-22T17:57:18.348Z,47.50
2018-09-22T17:59:48.904Z,47.70
2018-09-22T18:02:18.232Z,47.80
2018-09-22T18:04:47.461Z,47.70
2018-09-22T18:07:16.828Z,48.20
2018-09-22T18:09:46.180Z,47.90
2018-09-22T18:12:15.404Z,48.10
2018-09-22T18:14:45.338Z,48.30
2018-09-22T18:17:14.581Z,49.30
2018-09-22T18:19:43.824Z,52.10
2018-09-22T18:22:13.409Z,53.20
2018-09-22T18:24:42.712Z,54.30
2018-09-22T18:27:12.232Z,54.60
2018-09-22T18:29:41.460Z,55.40
2018-09-22T18:32:11.206Z,55.70
2018-09-22T18:34:40.425Z,56.30
2018-09-22T18:37:09.681Z,56.40
2018-09-22T18:39:38.968Z,57.20
2018-09-22T18:42:08.562Z,57.70
2018-09-22T18:44:37.889Z,57.70
2018-09-22T18:47:07.471Z,58.60
2018-09-22T18:49:36.692Z,59.20
2018-09-22T18:52:05.951Z,59.50
2018-09-22T18:54:35.292Z,60.50
2018-09-22T18:57:04.537Z,61.10
2018-09-22T18:59:33.760Z,61.70
2018-09-22T19:02:03.016Z,63.00
2018-09-22T19:04:32.234Z,63.90
2018-09-22T19:07:02.169Z,63.70
2018-09-22T19:09:31.415Z,65.70
2018-09-22T19:12:00.632Z,66.20
2018-09-22T19:14:36.737Z,66.50
2018-09-22T19:17:09.677Z,67.60
2018-09-22T19:19:44.132Z,65.90
2018-09-22T19:22:16.752Z,67.40
2018-09-22T19:24:51.637Z,67.80
2018-09-22T19:27:28.257Z,66.50
2018-09-22T19:30:02.038Z,68.20
2018-09-22T19:32:35.252Z,67.50
2018-09-22T19:35:08.428Z,68.70
2018-09-22T19:37:42.384Z,68.00
2018-09-22T19:40:15.576Z,67.80
2018-09-22T19:42:48.852Z,69.40
2018-09-22T19:45:23.082Z,70.10
2018-09-22T19:48:57.985Z,69.90
2018-09-22T19:51:29.785Z,72.30
2018-09-22T19:53:59.878Z,69.50
2018-09-22T19:56:29.124Z,71.10
2018-09-22T19:58:58.387Z,70.50
2018-09-22T20:01:27.691Z,71.70
2018-09-22T20:03:56.980Z,72.30
2018-09-22T20:06:26.860Z,71.60
2018-09-22T20:08:56.282Z,71.30
2018-09-22T20:11:25.531Z,72.80
2018-09-22T20:13:55.071Z,73.00
2018-09-22T20:16:25.204Z,69.80
2018-09-22T20:18:54.420Z,71.40
2018-09-22T20:21:23.703Z,71.80
2018-09-22T20:23:53.003Z,72.10
2018-09-22T20:26:22.172Z,72.60
2018-09-22T20:28:51.768Z,72.50
2018-09-22T20:31:20.998Z,72.20
2018-09-22T20:33:50.242Z,70.20
2018-09-22T20:36:19.689Z,73.60
2018-09-22T20:38:48.900Z,73.80
2018-09-22T20:41:18.128Z,72.30
2018-09-22T20:43:47.383Z,73.60
2018-09-22T20:46:16.728Z,74.90
2018-09-22T20:48:45.959Z,73.20
2018-09-22T20:51:15.504Z,72.60
2018-09-22T20:53:44.764Z,75.50
2018-09-22T20:56:13.956Z,76.50
2018-09-22T20:58:43.196Z,75.70
2018-09-22T21:01:12.448Z,76.00
2018-09-22T21:03:41.783Z,74.50
2018-09-22T21:06:11.139Z,73.60
2018-09-22T21:08:40.360Z,74.20
2018-09-22T21:11:09.892Z,74.70
2018-09-22T21:13:39.516Z,74.30
2018-09-22T21:16:08.775Z,75.20
2018-09-22T21:18:38.007Z,75.40
2018-09-22T21:21:07.711Z,77.80
2018-09-22T21:23:36.916Z,76.70
2018-09-22T21:26:06.391Z,76.60
2018-09-22T21:28:35.668Z,78.60
2018-09-22T21:31:04.942Z,77.20
2018-09-22T21:33:34.148Z,76.80
2018-09-22T21:36:03.854Z,75.10
2018-09-22T21:38:33.061Z,75.30
2018-09-22T21:41:02.288Z,77.90
2018-09-22T21:43:31.554Z,78.30
2018-09-22T21:46:00.769Z,78.10
2018-09-22T21:48:29.995Z,76.40
2018-09-22T21:50:59.275Z,76.70
2018-09-22T21:53:28.608Z,76.60
2018-09-22T21:55:57.845Z,76.30
2018-09-22T21:58:27.596Z,76.80
2018-09-22T22:00:56.788Z,79.40
2018-09-22T22:03:26.212Z,79.50
2018-09-22T22:05:55.780Z,79.50
2018-09-22T22:08:25.080Z,78.70
2018-09-22T22:10:54.448Z,77.00
2018-09-22T22:13:24.095Z,76.90
2018-09-22T22:15:53.386Z,78.00
2018-09-22T22:18:22.582Z,78.10
2018-09-22T22:20:51.929Z,77.30
2018-09-22T22:23:21.184Z,77.40
2018-09-22T22:25:50.708Z,78.20
2018-09-22T22:28:19.958Z,77.20
2018-09-22T22:30:49.200Z,77.30
2018-09-22T22:33:18.436Z,77.60
2018-09-22T22:35:47.701Z,77.80
2018-09-22T22:38:16.961Z,77.50
2018-09-22T22:40:46.393Z,77.20
2018-09-22T22:43:15.865Z,77.50
2018-09-22T22:45:45.091Z,78.50
2018-09-22T22:48:14.308Z,78.60
2018-09-22T22:50:43.584Z,79.10
2018-09-22T22:53:12.803Z,82.50
2018-09-22T22:55:42.032Z,84.70
2018-09-22T22:58:11.283Z,83.10
2018-09-22T23:00:40.748Z,82.40
2018-09-22T23:03:09.994Z,83.10
2018-09-22T23:05:39.596Z,81.90
2018-09-22T23:08:08.972Z,82.50
2018-09-22T23:10:38.211Z,83.70
2018-09-22T23:13:07.468Z,84.60
2018-09-22T23:15:36.955Z,83.10
2018-09-22T23:18:06.534Z,82.70
2018-09-22T23:20:35.913Z,83.50
2018-09-22T23:23:05.382Z,82.80
2018-09-22T23:25:34.695Z,82.70
2018-09-22T23:28:04.216Z,83.70
2018-09-22T23:30:33.444Z,82.80
2018-09-22T23:33:02.655Z,83.40
2018-09-22T23:35:31.896Z,84.00
2018-09-22T23:38:01.404Z,84.40
2018-09-22T23:40:30.637Z,84.60
2018-09-22T23:42:59.867Z,85.50
2018-09-22T23:45:29.097Z,85.40
2018-09-22T23:47:58.336Z,84.50
2018-09-22T23:50:27.928Z,85.00
2018-09-22T23:52:57.508Z,84.80
2018-09-22T23:55:26.733Z,85.10
2018-09-22T23:57:56.300Z,85.90
